sensor_id;sensor_type;location;lat;lon;timestamp;P1;durP1;ratioP1;P2;durP2;ratioP2
4521;SDS011;2273;48.464;11.926;2023-04-08T00:00:55;21.67;;;15.90;;
4521;SDS011;2273;48.464;11.926;2023-04-08T00:03:20;24.70;;;13.80;;
4521;SDS011;2273;48.464;11.926;2023-04-08T00:05:46;23.00;;;15.10;;
4521;SDS011;2273;48.464;11.926;2023-04-08T00:08:11;21.23;;;13.97;;
4521;SDS011;2273;48.464;11.926;2023-04-08T00:10:37;23.17;;;14.10;;
4521;SDS011;2273;48.464;11.926;2023-04-08T00:13:03;22.10;;;13.93;;
4521;SDS011;2273;48.464;11.926;2023-04-08T00:15:28;18.60;;;13.43;;
4521;SDS011;2273;48.464;11.926;2023-04-08T00:17:53;22.77;;;14.83;;
4521;SDS011;2273;48.464;11.926;2023-04-08T00:20:20;20.77;;;13.47;;
4521;SDS011;2273;48.464;11.926;2023-04-08T00:22:46;20.63;;;14.73;;
4521;SDS011;2273;48.464;11.926;2023-04-08T00:25:12;20.70;;;14.30;;
4521;SDS011;2273;48.464;11.926;2023-04-08T00:27:37;22.47;;;14.83;;
4521;SDS011;2273;48.464;11.926;2023-04-08T00:30:02;22.60;;;13.83;;
4521;SDS011;2273;48.464;11.926;2023-04-08T00:32:28;20.70;;;13.80;;
4521;SDS011;2273;48.464;11.926;2023-04-08T00:34:54;18.27;;;12.77;;
4521;SDS011;2273;48.464;11.926;2023-04-08T00:37:19;20.23;;;13.60;;
4521;SDS011;2273;48.464;11.926;2023-04-08T00:39:45;21.00;;;13.17;;
4521;SDS011;2273;48.464;11.926;2023-04-08T00:42:10;20.73;;;13.90;;
4521;SDS011;2273;48.464;11.926;2023-04-08T00:44:36;20.67;;;13.03;;
4521;SDS011;2273;48.464;11.926;2023-04-08T00:47:02;19.20;;;12.30;;
4521;SDS011;2273;48.464;11.926;2023-04-08T00:49:29;22.10;;;14.33;;
4521;SDS011;2273;48.464;11.926;2023-04-08T00:51:55;21.73;;;14.20;;
4521;SDS011;2273;48.464;11.926;2023-04-08T00:54:20;20.70;;;14.40;;
4521;SDS011;2273;48.464;11.926;2023-04-08T00:56:46;23.57;;;14.83;;
4521;SDS011;2273;48.464;11.926;2023-04-08T00:59:12;20.37;;;13.47;;
4521;SDS011;2273;48.464;11.926;2023-04-08T01:04:08;24.10;;;14.13;;
4521;SDS011;2273;48.464;11.926;2023-04-08T01:06:40;21.80;;;14.13;;
4521;SDS011;2273;48.464;11.926;2023-04-08T01:09:12;24.30;;;15.37;;
4521;SDS011;2273;48.464;11.926;2023-04-08T01:11:40;20.63;;;14.40;;
4521;SDS011;2273;48.464;11.926;2023-04-08T01:14:07;22.80;;;14.77;;
4521;SDS011;2273;48.464;11.926;2023-04-08T01:16:34;22.00;;;14.77;;
4521;SDS011;2273;48.464;11.926;2023-04-08T01:19:03;20.70;;;13.90;;
4521;SDS011;2273;48.464;11.926;2023-04-08T01:21:31;21.37;;;14.90;;
4521;SDS011;2273;48.464;11.926;2023-04-08T01:24:11;19.77;;;13.13;;
4521;SDS011;2273;48.464;11.926;2023-04-08T01:26:41;19.53;;;13.70;;
4521;SDS011;2273;48.464;11.926;2023-04-08T01:29:07;23.60;;;14.67;;
4521;SDS011;2273;48.464;11.926;2023-04-08T01:31:33;19.60;;;14.07;;
4521;SDS011;2273;48.464;11.926;2023-04-08T01:34:00;22.50;;;14.30;;
4521;SDS011;2273;48.464;11.926;2023-04-08T01:36:28;22.40;;;14.10;;
4521;SDS011;2273;48.464;11.926;2023-04-08T01:38:56;20.33;;;13.80;;
4521;SDS011;2273;48.464;11.926;2023-04-08T01:41:24;20.03;;;13.50;;
4521;SDS011;2273;48.464;11.926;2023-04-08T01:43:49;21.20;;;13.50;;
4521;SDS011;2273;48.464;11.926;2023-04-08T01:46:16;22.73;;;13.60;;
4521;SDS011;2273;48.464;11.926;2023-04-08T01:48:41;18.63;;;13.07;;
4521;SDS011;2273;48.464;11.926;2023-04-08T01:51:07;22.40;;;13.90;;
4521;SDS011;2273;48.464;11.926;2023-04-08T01:53:34;22.63;;;13.67;;
4521;SDS011;2273;48.464;11.926;2023-04-08T01:56:06;19.00;;;13.03;;
4521;SDS011;2273;48.464;11.926;2023-04-08T01:58:41;20.17;;;14.10;;
4521;SDS011;2273;48.464;11.926;2023-04-08T02:01:11;23.23;;;13.90;;
4521;SDS011;2273;48.464;11.926;2023-04-08T02:03:39;22.10;;;13.50;;
4521;SDS011;2273;48.464;11.926;2023-04-08T02:06:06;19.48;;;13.18;;
4521;SDS011;2273;48.464;11.926;2023-04-08T02:08:32;21.40;;;13.47;;
4521;SDS011;2273;48.464;11.926;2023-04-08T02:11:01;22.90;;;14.17;;
4521;SDS011;2273;48.464;11.926;2023-04-08T02:13:30;21.07;;;13.80;;
4521;SDS011;2273;48.464;11.926;2023-04-08T02:16:00;18.27;;;12.93;;
4521;SDS011;2273;48.464;11.926;2023-04-08T02:18:29;21.00;;;13.70;;
4521;SDS011;2273;48.464;11.926;2023-04-08T02:21:12;19.70;;;13.07;;
4521;SDS011;2273;48.464;11.926;2023-04-08T02:23:39;19.77;;;13.37;;
4521;SDS011;2273;48.464;11.926;2023-04-08T02:26:12;19.40;;;12.87;;
4521;SDS011;2273;48.464;11.926;2023-04-08T02:28:38;20.00;;;13.87;;
4521;SDS011;2273;48.464;11.926;2023-04-08T02:31:10;17.33;;;12.30;;
4521;SDS011;2273;48.464;11.926;2023-04-08T02:33:43;20.50;;;14.20;;
4521;SDS011;2273;48.464;11.926;2023-04-08T02:36:10;17.67;;;12.47;;
4521;SDS011;2273;48.464;11.926;2023-04-08T02:38:37;20.53;;;13.60;;
4521;SDS011;2273;48.464;11.926;2023-04-08T02:41:03;20.40;;;13.50;;
4521;SDS011;2273;48.464;11.926;2023-04-08T02:43:28;21.10;;;14.53;;
4521;SDS011;2273;48.464;11.926;2023-04-08T02:45:57;18.87;;;13.33;;
4521;SDS011;2273;48.464;11.926;2023-04-08T02:48:28;20.43;;;13.83;;
4521;SDS011;2273;48.464;11.926;2023-04-08T02:50:57;23.70;;;13.70;;
4521;SDS011;2273;48.464;11.926;2023-04-08T02:53:22;22.00;;;13.60;;
4521;SDS011;2273;48.464;11.926;2023-04-08T02:55:48;21.23;;;13.80;;
4521;SDS011;2273;48.464;11.926;2023-04-08T02:58:14;22.90;;;13.67;;
4521;SDS011;2273;48.464;11.926;2023-04-08T03:00:40;23.10;;;13.83;;
4521;SDS011;2273;48.464;11.926;2023-04-08T03:03:05;19.97;;;13.83;;
4521;SDS011;2273;48.464;11.926;2023-04-08T03:05:31;24.43;;;15.53;;
4521;SDS011;2273;48.464;11.926;2023-04-08T03:07:56;21.97;;;14.37;;
4521;SDS011;2273;48.464;11.926;2023-04-08T03:10:22;22.27;;;15.30;;
4521;SDS011;2273;48.464;11.926;2023-04-08T03:12:47;21.93;;;14.13;;
4521;SDS011;2273;48.464;11.926;2023-04-08T03:15:13;19.67;;;12.97;;
4521;SDS011;2273;48.464;11.926;2023-04-08T03:17:38;21.67;;;13.80;;
4521;SDS011;2273;48.464;11.926;2023-04-08T03:20:04;20.90;;;13.30;;
4521;SDS011;2273;48.464;11.926;2023-04-08T03:22:31;21.53;;;13.90;;
4521;SDS011;2273;48.464;11.926;2023-04-08T03:24:57;25.03;;;16.13;;
4521;SDS011;2273;48.464;11.926;2023-04-08T03:27:23;23.57;;;14.87;;
4521;SDS011;2273;48.464;11.926;2023-04-08T03:29:48;22.00;;;13.57;;
4521;SDS011;2273;48.464;11.926;2023-04-08T03:32:14;18.37;;;13.07;;
4521;SDS011;2273;48.464;11.926;2023-04-08T03:34:39;21.00;;;14.13;;
4521;SDS011;2273;48.464;11.926;2023-04-08T03:37:05;20.67;;;14.13;;
4521;SDS011;2273;48.464;11.926;2023-04-08T03:39:30;22.33;;;14.50;;
4521;SDS011;2273;48.464;11.926;2023-04-08T03:41:57;19.60;;;13.80;;
4521;SDS011;2273;48.464;11.926;2023-04-08T03:44:24;23.30;;;15.47;;
4521;SDS011;2273;48.464;11.926;2023-04-08T03:46:50;23.37;;;15.47;;
4521;SDS011;2273;48.464;11.926;2023-04-08T03:49:15;20.63;;;14.10;;
4521;SDS011;2273;48.464;11.926;2023-04-08T03:51:41;23.63;;;16.33;;
4521;SDS011;2273;48.464;11.926;2023-04-08T03:54:06;20.73;;;14.30;;
4521;SDS011;2273;48.464;11.926;2023-04-08T03:56:31;24.03;;;16.00;;
4521;SDS011;2273;48.464;11.926;2023-04-08T03:58:57;31.80;;;16.07;;
4521;SDS011;2273;48.464;11.926;2023-04-08T04:01:22;24.53;;;15.80;;
4521;SDS011;2273;48.464;11.926;2023-04-08T04:03:48;25.73;;;16.07;;
4521;SDS011;2273;48.464;11.926;2023-04-08T04:06:13;25.63;;;15.70;;
4521;SDS011;2273;48.464;11.926;2023-04-08T04:08:38;24.33;;;14.90;;
4521;SDS011;2273;48.464;11.926;2023-04-08T04:11:04;26.47;;;15.67;;
4521;SDS011;2273;48.464;11.926;2023-04-08T04:13:29;22.80;;;14.90;;
4521;SDS011;2273;48.464;11.926;2023-04-08T04:15:55;26.60;;;16.70;;
4521;SDS011;2273;48.464;11.926;2023-04-08T04:18:21;22.97;;;15.50;;
4521;SDS011;2273;48.464;11.926;2023-04-08T04:20:47;25.23;;;16.13;;
4521;SDS011;2273;48.464;11.926;2023-04-08T04:23:12;21.93;;;15.50;;
4521;SDS011;2273;48.464;11.926;2023-04-08T04:25:39;23.10;;;15.70;;
4521;SDS011;2273;48.464;11.926;2023-04-08T04:28:05;25.13;;;16.30;;
4521;SDS011;2273;48.464;11.926;2023-04-08T04:30:32;26.07;;;15.87;;
4521;SDS011;2273;48.464;11.926;2023-04-08T04:32:57;26.50;;;16.93;;
4521;SDS011;2273;48.464;11.926;2023-04-08T04:35:22;21.77;;;14.73;;
4521;SDS011;2273;48.464;11.926;2023-04-08T04:37:48;30.33;;;18.33;;
4521;SDS011;2273;48.464;11.926;2023-04-08T04:40:15;24.27;;;16.33;;
4521;SDS011;2273;48.464;11.926;2023-04-08T04:42:41;25.43;;;16.40;;
4521;SDS011;2273;48.464;11.926;2023-04-08T04:45:07;25.73;;;15.10;;
4521;SDS011;2273;48.464;11.926;2023-04-08T04:47:33;26.30;;;16.50;;
4521;SDS011;2273;48.464;11.926;2023-04-08T04:49:58;27.97;;;15.83;;
4521;SDS011;2273;48.464;11.926;2023-04-08T04:52:24;25.50;;;15.90;;
4521;SDS011;2273;48.464;11.926;2023-04-08T04:54:49;23.67;;;15.97;;
4521;SDS011;2273;48.464;11.926;2023-04-08T04:57:15;38.23;;;16.17;;
4521;SDS011;2273;48.464;11.926;2023-04-08T04:59:40;23.17;;;15.90;;
4521;SDS011;2273;48.464;11.926;2023-04-08T05:02:06;24.63;;;15.87;;
4521;SDS011;2273;48.464;11.926;2023-04-08T05:04:31;26.00;;;16.43;;
4521;SDS011;2273;48.464;11.926;2023-04-08T05:07:00;25.17;;;17.20;;
4521;SDS011;2273;48.464;11.926;2023-04-08T05:09:25;29.90;;;15.90;;
4521;SDS011;2273;48.464;11.926;2023-04-08T05:11:51;23.90;;;16.60;;
4521;SDS011;2273;48.464;11.926;2023-04-08T05:14:16;24.33;;;16.60;;
4521;SDS011;2273;48.464;11.926;2023-04-08T05:16:41;24.70;;;16.27;;
4521;SDS011;2273;48.464;11.926;2023-04-08T05:19:07;26.60;;;16.70;;
4521;SDS011;2273;48.464;11.926;2023-04-08T05:21:32;24.43;;;15.23;;
4521;SDS011;2273;48.464;11.926;2023-04-08T05:23:57;26.87;;;16.60;;
4521;SDS011;2273;48.464;11.926;2023-04-08T05:26:23;24.57;;;16.30;;
4521;SDS011;2273;48.464;11.926;2023-04-08T05:28:49;27.80;;;17.20;;
4521;SDS011;2273;48.464;11.926;2023-04-08T05:31:15;26.33;;;16.53;;
4521;SDS011;2273;48.464;11.926;2023-04-08T05:33:41;27.40;;;17.40;;
4521;SDS011;2273;48.464;11.926;2023-04-08T05:36:06;25.10;;;16.27;;
4521;SDS011;2273;48.464;11.926;2023-04-08T05:38:32;29.07;;;16.60;;
4521;SDS011;2273;48.464;11.926;2023-04-08T05:40:57;25.13;;;17.03;;
4521;SDS011;2273;48.464;11.926;2023-04-08T05:43:23;26.17;;;16.60;;
4521;SDS011;2273;48.464;11.926;2023-04-08T05:45:48;25.57;;;16.47;;
4521;SDS011;2273;48.464;11.926;2023-04-08T05:48:14;26.27;;;17.20;;
4521;SDS011;2273;48.464;11.926;2023-04-08T05:50:39;28.43;;;15.97;;
4521;SDS011;2273;48.464;11.926;2023-04-08T05:53:05;26.90;;;17.43;;
4521;SDS011;2273;48.464;11.926;2023-04-08T05:55:30;25.60;;;16.60;;
4521;SDS011;2273;48.464;11.926;2023-04-08T05:57:56;24.00;;;16.10;;
4521;SDS011;2273;48.464;11.926;2023-04-08T06:00:21;27.70;;;15.73;;
4521;SDS011;2273;48.464;11.926;2023-04-08T06:02:47;26.73;;;16.57;;
4521;SDS011;2273;48.464;11.926;2023-04-08T06:05:12;28.40;;;16.53;;
4521;SDS011;2273;48.464;11.926;2023-04-08T06:07:38;27.10;;;16.30;;
4521;SDS011;2273;48.464;11.926;2023-04-08T06:10:03;28.67;;;16.87;;
4521;SDS011;2273;48.464;11.926;2023-04-08T06:12:29;28.07;;;17.50;;
4521;SDS011;2273;48.464;11.926;2023-04-08T06:14:56;25.80;;;16.90;;
4521;SDS011;2273;48.464;11.926;2023-04-08T06:17:21;28.10;;;17.30;;
4521;SDS011;2273;48.464;11.926;2023-04-08T06:19:47;26.77;;;16.27;;
4521;SDS011;2273;48.464;11.926;2023-04-08T06:22:12;28.00;;;17.33;;
4521;SDS011;2273;48.464;11.926;2023-04-08T06:24:37;28.40;;;17.20;;
4521;SDS011;2273;48.464;11.926;2023-04-08T06:27:03;25.90;;;16.43;;
4521;SDS011;2273;48.464;11.926;2023-04-08T06:29:28;25.20;;;16.73;;
4521;SDS011;2273;48.464;11.926;2023-04-08T06:31:54;31.00;;;17.57;;
4521;SDS011;2273;48.464;11.926;2023-04-08T06:34:20;27.33;;;17.40;;
4521;SDS011;2273;48.464;11.926;2023-04-08T06:36:45;25.70;;;15.80;;
4521;SDS011;2273;48.464;11.926;2023-04-08T06:39:10;23.43;;;15.10;;
4521;SDS011;2273;48.464;11.926;2023-04-08T06:41:36;29.40;;;16.87;;
4521;SDS011;2273;48.464;11.926;2023-04-08T06:44:15;27.70;;;16.60;;
4521;SDS011;2273;48.464;11.926;2023-04-08T06:46:41;32.80;;;17.10;;
4521;SDS011;2273;48.464;11.926;2023-04-08T06:49:06;24.77;;;16.63;;
4521;SDS011;2273;48.464;11.926;2023-04-08T06:51:32;24.73;;;16.77;;
4521;SDS011;2273;48.464;11.926;2023-04-08T06:53:57;25.90;;;17.07;;
4521;SDS011;2273;48.464;11.926;2023-04-08T06:56:22;26.47;;;17.23;;
4521;SDS011;2273;48.464;11.926;2023-04-08T06:58:50;29.60;;;17.50;;
4521;SDS011;2273;48.464;11.926;2023-04-08T07:01:16;27.53;;;17.03;;
4521;SDS011;2273;48.464;11.926;2023-04-08T07:03:41;23.43;;;15.50;;
4521;SDS011;2273;48.464;11.926;2023-04-08T07:06:07;28.97;;;16.50;;
4521;SDS011;2273;48.464;11.926;2023-04-08T07:08:32;23.73;;;16.60;;
4521;SDS011;2273;48.464;11.926;2023-04-08T07:10:58;26.07;;;17.57;;
4521;SDS011;2273;48.464;11.926;2023-04-08T07:13:23;21.50;;;14.97;;
4521;SDS011;2273;48.464;11.926;2023-04-08T07:15:48;26.30;;;17.30;;
4521;SDS011;2273;48.464;11.926;2023-04-08T07:18:14;24.77;;;16.53;;
4521;SDS011;2273;48.464;11.926;2023-04-08T07:20:39;28.03;;;16.20;;
4521;SDS011;2273;48.464;11.926;2023-04-08T07:23:06;25.20;;;15.97;;
4521;SDS011;2273;48.464;11.926;2023-04-08T07:25:32;23.73;;;16.30;;
4521;SDS011;2273;48.464;11.926;2023-04-08T07:27:58;26.67;;;16.40;;
4521;SDS011;2273;48.464;11.926;2023-04-08T07:30:24;24.73;;;16.07;;
4521;SDS011;2273;48.464;11.926;2023-04-08T07:32:49;27.73;;;16.10;;
4521;SDS011;2273;48.464;11.926;2023-04-08T07:35:15;23.80;;;15.13;;
4521;SDS011;2273;48.464;11.926;2023-04-08T07:37:48;22.60;;;14.83;;
4521;SDS011;2273;48.464;11.926;2023-04-08T07:40:13;24.07;;;15.80;;
4521;SDS011;2273;48.464;11.926;2023-04-08T07:42:39;23.80;;;15.30;;
4521;SDS011;2273;48.464;11.926;2023-04-08T07:45:04;20.40;;;14.70;;
4521;SDS011;2273;48.464;11.926;2023-04-08T07:47:30;22.43;;;14.90;;
4521;SDS011;2273;48.464;11.926;2023-04-08T07:49:55;21.00;;;15.57;;
4521;SDS011;2273;48.464;11.926;2023-04-08T07:52:21;22.30;;;14.43;;
4521;SDS011;2273;48.464;11.926;2023-04-08T07:54:46;22.07;;;14.90;;
4521;SDS011;2273;48.464;11.926;2023-04-08T07:57:12;34.83;;;16.47;;
4521;SDS011;2273;48.464;11.926;2023-04-08T07:59:37;22.93;;;15.70;;
4521;SDS011;2273;48.464;11.926;2023-04-08T08:02:03;25.03;;;16.47;;
4521;SDS011;2273;48.464;11.926;2023-04-08T08:04:28;24.13;;;15.10;;
4521;SDS011;2273;48.464;11.926;2023-04-08T08:06:54;26.77;;;16.87;;
4521;SDS011;2273;48.464;11.926;2023-04-08T08:09:19;20.93;;;14.37;;
4521;SDS011;2273;48.464;11.926;2023-04-08T08:11:45;24.37;;;16.40;;
4521;SDS011;2273;48.464;11.926;2023-04-08T08:14:10;25.00;;;15.37;;
4521;SDS011;2273;48.464;11.926;2023-04-08T08:16:37;23.60;;;16.13;;
4521;SDS011;2273;48.464;11.926;2023-04-08T08:19:03;26.70;;;15.23;;
4521;SDS011;2273;48.464;11.926;2023-04-08T08:21:31;22.47;;;15.27;;
4521;SDS011;2273;48.464;11.926;2023-04-08T08:23:57;22.27;;;14.83;;
4521;SDS011;2273;48.464;11.926;2023-04-08T08:26:23;22.57;;;16.50;;
4521;SDS011;2273;48.464;11.926;2023-04-08T08:28:49;24.23;;;15.00;;
4521;SDS011;2273;48.464;11.926;2023-04-08T08:31:15;22.80;;;15.00;;
4521;SDS011;2273;48.464;11.926;2023-04-08T08:33:40;23.33;;;16.40;;
4521;SDS011;2273;48.464;11.926;2023-04-08T08:36:05;23.77;;;15.60;;
4521;SDS011;2273;48.464;11.926;2023-04-08T08:38:32;24.30;;;17.13;;
4521;SDS011;2273;48.464;11.926;2023-04-08T08:40:57;25.53;;;16.53;;
4521;SDS011;2273;48.464;11.926;2023-04-08T08:43:24;24.47;;;16.33;;
4521;SDS011;2273;48.464;11.926;2023-04-08T08:45:50;24.30;;;15.20;;
4521;SDS011;2273;48.464;11.926;2023-04-08T08:48:15;25.97;;;15.40;;
4521;SDS011;2273;48.464;11.926;2023-04-08T08:50:41;27.73;;;17.00;;
4521;SDS011;2273;48.464;11.926;2023-04-08T08:53:07;24.50;;;16.50;;
4521;SDS011;2273;48.464;11.926;2023-04-08T08:55:32;25.13;;;15.60;;
4521;SDS011;2273;48.464;11.926;2023-04-08T08:57:58;28.93;;;16.97;;
4521;SDS011;2273;48.464;11.926;2023-04-08T09:00:35;25.50;;;16.87;;
4521;SDS011;2273;48.464;11.926;2023-04-08T09:03:17;24.00;;;16.57;;
4521;SDS011;2273;48.464;11.926;2023-04-08T09:05:59;22.73;;;15.10;;
4521;SDS011;2273;48.464;11.926;2023-04-08T09:08:26;22.30;;;16.33;;
4521;SDS011;2273;48.464;11.926;2023-04-08T09:13:43;27.20;;;18.00;;
4521;SDS011;2273;48.464;11.926;2023-04-08T09:16:10;27.80;;;19.00;;
4521;SDS011;2273;48.464;11.926;2023-04-08T09:18:47;31.57;;;19.77;;
4521;SDS011;2273;48.464;11.926;2023-04-08T09:21:14;28.93;;;20.30;;
4521;SDS011;2273;48.464;11.926;2023-04-08T09:23:43;26.53;;;18.77;;
4521;SDS011;2273;48.464;11.926;2023-04-08T09:26:16;26.07;;;18.63;;
4521;SDS011;2273;48.464;11.926;2023-04-08T09:28:59;24.53;;;17.37;;
4521;SDS011;2273;48.464;11.926;2023-04-08T09:31:30;27.00;;;19.17;;
4521;SDS011;2273;48.464;11.926;2023-04-08T09:33:57;24.47;;;17.20;;
4521;SDS011;2273;48.464;11.926;2023-04-08T09:36:24;24.03;;;16.57;;
4521;SDS011;2273;48.464;11.926;2023-04-08T09:38:53;24.43;;;16.47;;
4521;SDS011;2273;48.464;11.926;2023-04-08T09:41:20;25.03;;;16.10;;
4521;SDS011;2273;48.464;11.926;2023-04-08T09:43:50;21.70;;;16.27;;
4521;SDS011;2273;48.464;11.926;2023-04-08T09:46:25;23.23;;;15.93;;
4521;SDS011;2273;48.464;11.926;2023-04-08T09:49:08;21.33;;;15.30;;
4521;SDS011;2273;48.464;11.926;2023-04-08T09:51:41;20.13;;;14.67;;
4521;SDS011;2273;48.464;11.926;2023-04-08T09:54:11;19.87;;;13.90;;
4521;SDS011;2273;48.464;11.926;2023-04-08T09:56:58;16.83;;;12.70;;
4521;SDS011;2273;48.464;11.926;2023-04-08T09:59:28;14.33;;;11.67;;
4521;SDS011;2273;48.464;11.926;2023-04-08T10:01:55;16.37;;;11.47;;
4521;SDS011;2273;48.464;11.926;2023-04-08T10:04:22;16.43;;;11.97;;
4521;SDS011;2273;48.464;11.926;2023-04-08T10:06:51;13.97;;;10.47;;
4521;SDS011;2273;48.464;11.926;2023-04-08T10:09:20;19.10;;;13.03;;
4521;SDS011;2273;48.464;11.926;2023-04-08T10:11:46;19.17;;;12.80;;
4521;SDS011;2273;48.464;11.926;2023-04-08T10:14:12;14.63;;;11.60;;
4521;SDS011;2273;48.464;11.926;2023-04-08T10:16:37;14.73;;;11.43;;
4521;SDS011;2273;48.464;11.926;2023-04-08T10:19:03;15.33;;;11.30;;
4521;SDS011;2273;48.464;11.926;2023-04-08T10:22:02;16.47;;;11.50;;
4521;SDS011;2273;48.464;11.926;2023-04-08T10:24:28;14.60;;;10.57;;
4521;SDS011;2273;48.464;11.926;2023-04-08T10:26:54;16.77;;;11.50;;
4521;SDS011;2273;48.464;11.926;2023-04-08T10:31:49;14.83;;;10.80;;
4521;SDS011;2273;48.464;11.926;2023-04-08T10:34:19;13.60;;;10.50;;
4521;SDS011;2273;48.464;11.926;2023-04-08T10:36:45;14.80;;;11.13;;
4521;SDS011;2273;48.464;11.926;2023-04-08T10:39:11;15.93;;;12.50;;
4521;SDS011;2273;48.464;11.926;2023-04-08T10:41:41;18.87;;;12.80;;
4521;SDS011;2273;48.464;11.926;2023-04-08T10:44:23;19.30;;;13.70;;
4521;SDS011;2273;48.464;11.926;2023-04-08T10:46:50;16.77;;;13.30;;
4521;SDS011;2273;48.464;11.926;2023-04-08T10:49:16;17.90;;;13.10;;
4521;SDS011;2273;48.464;11.926;2023-04-08T10:51:42;20.73;;;14.67;;
4521;SDS011;2273;48.464;11.926;2023-04-08T10:54:11;20.53;;;15.07;;
4521;SDS011;2273;48.464;11.926;2023-04-08T10:56:45;19.50;;;15.10;;
4521;SDS011;2273;48.464;11.926;2023-04-08T10:59:12;22.40;;;15.63;;
4521;SDS011;2273;48.464;11.926;2023-04-08T11:01:40;24.03;;;16.50;;
4521;SDS011;2273;48.464;11.926;2023-04-08T11:04:12;20.47;;;14.60;;
4521;SDS011;2273;48.464;11.926;2023-04-08T11:06:38;19.60;;;14.80;;
4521;SDS011;2273;48.464;11.926;2023-04-08T11:09:03;19.27;;;14.00;;
4521;SDS011;2273;48.464;11.926;2023-04-08T11:11:29;18.67;;;13.50;;
4521;SDS011;2273;48.464;11.926;2023-04-08T11:13:55;18.90;;;13.30;;
4521;SDS011;2273;48.464;11.926;2023-04-08T11:16:21;21.47;;;15.43;;
4521;SDS011;2273;48.464;11.926;2023-04-08T11:18:47;19.40;;;13.63;;
4521;SDS011;2273;48.464;11.926;2023-04-08T11:21:13;18.00;;;13.23;;
4521;SDS011;2273;48.464;11.926;2023-04-08T11:23:40;20.53;;;14.10;;
4521;SDS011;2273;48.464;11.926;2023-04-08T11:26:06;20.60;;;14.03;;
4521;SDS011;2273;48.464;11.926;2023-04-08T11:28:32;20.60;;;14.80;;
4521;SDS011;2273;48.464;11.926;2023-04-08T11:30:59;22.30;;;15.30;;
4521;SDS011;2273;48.464;11.926;2023-04-08T11:33:25;24.87;;;15.80;;
4521;SDS011;2273;48.464;11.926;2023-04-08T11:35:53;26.07;;;17.93;;
4521;SDS011;2273;48.464;11.926;2023-04-08T11:38:22;23.03;;;16.33;;
4521;SDS011;2273;48.464;11.926;2023-04-08T11:40:54;20.67;;;14.43;;
4521;SDS011;2273;48.464;11.926;2023-04-08T11:43:21;25.30;;;17.77;;
4521;SDS011;2273;48.464;11.926;2023-04-08T11:45:47;19.80;;;13.57;;
4521;SDS011;2273;48.464;11.926;2023-04-08T11:48:13;23.97;;;16.27;;
4521;SDS011;2273;48.464;11.926;2023-04-08T11:50:40;20.80;;;14.07;;
4521;SDS011;2273;48.464;11.926;2023-04-08T11:53:16;21.33;;;13.33;;
4521;SDS011;2273;48.464;11.926;2023-04-08T11:55:50;19.90;;;14.40;;
4521;SDS011;2273;48.464;11.926;2023-04-08T11:58:16;21.60;;;15.00;;
4521;SDS011;2273;48.464;11.926;2023-04-08T12:00:42;20.73;;;14.83;;
4521;SDS011;2273;48.464;11.926;2023-04-08T12:03:08;22.30;;;14.90;;
4521;SDS011;2273;48.464;11.926;2023-04-08T12:05:33;23.80;;;14.43;;
4521;SDS011;2273;48.464;11.926;2023-04-08T12:07:59;22.77;;;14.57;;
4521;SDS011;2273;48.464;11.926;2023-04-08T12:10:24;20.30;;;14.10;;
4521;SDS011;2273;48.464;11.926;2023-04-08T12:12:50;23.00;;;13.90;;
4521;SDS011;2273;48.464;11.926;2023-04-08T12:15:16;21.23;;;14.43;;
4521;SDS011;2273;48.464;11.926;2023-04-08T12:17:41;22.57;;;14.73;;
4521;SDS011;2273;48.464;11.926;2023-04-08T12:20:08;26.40;;;17.03;;
4521;SDS011;2273;48.464;11.926;2023-04-08T12:22:34;22.03;;;14.90;;
4521;SDS011;2273;48.464;11.926;2023-04-08T12:25:00;21.00;;;14.50;;
4521;SDS011;2273;48.464;11.926;2023-04-08T12:27:27;19.57;;;13.43;;
4521;SDS011;2273;48.464;11.926;2023-04-08T12:29:52;21.57;;;15.30;;
4521;SDS011;2273;48.464;11.926;2023-04-08T12:32:18;20.57;;;13.63;;
4521;SDS011;2273;48.464;11.926;2023-04-08T12:34:43;21.27;;;14.00;;
4521;SDS011;2273;48.464;11.926;2023-04-08T12:37:09;20.53;;;14.77;;
4521;SDS011;2273;48.464;11.926;2023-04-08T12:39:35;21.90;;;14.90;;
4521;SDS011;2273;48.464;11.926;2023-04-08T12:42:00;19.50;;;13.97;;
4521;SDS011;2273;48.464;11.926;2023-04-08T12:44:26;21.97;;;14.10;;
4521;SDS011;2273;48.464;11.926;2023-04-08T12:46:51;22.77;;;14.40;;
4521;SDS011;2273;48.464;11.926;2023-04-08T12:49:17;20.33;;;13.73;;
4521;SDS011;2273;48.464;11.926;2023-04-08T12:51:42;21.17;;;14.40;;
4521;SDS011;2273;48.464;11.926;2023-04-08T12:54:07;26.63;;;16.40;;
4521;SDS011;2273;48.464;11.926;2023-04-08T12:56:33;21.27;;;14.40;;
4521;SDS011;2273;48.464;11.926;2023-04-08T12:58:58;24.80;;;15.93;;
4521;SDS011;2273;48.464;11.926;2023-04-08T13:01:25;23.43;;;14.60;;
4521;SDS011;2273;48.464;11.926;2023-04-08T13:03:50;22.53;;;15.27;;
4521;SDS011;2273;48.464;11.926;2023-04-08T13:06:15;24.10;;;14.80;;
4521;SDS011;2273;48.464;11.926;2023-04-08T13:08:41;24.50;;;15.77;;
4521;SDS011;2273;48.464;11.926;2023-04-08T13:11:07;24.80;;;15.87;;
4521;SDS011;2273;48.464;11.926;2023-04-08T13:13:32;27.87;;;16.07;;
4521;SDS011;2273;48.464;11.926;2023-04-08T13:15:58;20.97;;;14.70;;
4521;SDS011;2273;48.464;11.926;2023-04-08T13:18:23;26.60;;;16.77;;
4521;SDS011;2273;48.464;11.926;2023-04-08T13:20:49;21.80;;;14.43;;
4521;SDS011;2273;48.464;11.926;2023-04-08T13:23:14;22.97;;;15.23;;
4521;SDS011;2273;48.464;11.926;2023-04-08T13:25:42;23.27;;;15.20;;
4521;SDS011;2273;48.464;11.926;2023-04-08T13:28:07;24.20;;;16.67;;
4521;SDS011;2273;48.464;11.926;2023-04-08T13:30:33;24.07;;;16.90;;
4521;SDS011;2273;48.464;11.926;2023-04-08T13:32:59;22.50;;;15.30;;
4521;SDS011;2273;48.464;11.926;2023-04-08T13:35:24;21.43;;;14.87;;
4521;SDS011;2273;48.464;11.926;2023-04-08T13:37:50;23.80;;;16.20;;
4521;SDS011;2273;48.464;11.926;2023-04-08T13:40:16;23.03;;;15.73;;
4521;SDS011;2273;48.464;11.926;2023-04-08T13:42:41;20.67;;;14.27;;
4521;SDS011;2273;48.464;11.926;2023-04-08T13:45:07;24.00;;;16.57;;
4521;SDS011;2273;48.464;11.926;2023-04-08T13:47:32;24.87;;;16.87;;
4521;SDS011;2273;48.464;11.926;2023-04-08T13:49:58;26.30;;;15.67;;
4521;SDS011;2273;48.464;11.926;2023-04-08T13:52:23;25.47;;;17.13;;
4521;SDS011;2273;48.464;11.926;2023-04-08T13:54:48;26.23;;;16.90;;
4521;SDS011;2273;48.464;11.926;2023-04-08T13:57:14;25.20;;;15.63;;
4521;SDS011;2273;48.464;11.926;2023-04-08T13:59:39;21.60;;;14.80;;
4521;SDS011;2273;48.464;11.926;2023-04-08T14:02:05;22.70;;;15.43;;
4521;SDS011;2273;48.464;11.926;2023-04-08T14:04:30;18.60;;;13.43;;
4521;SDS011;2273;48.464;11.926;2023-04-08T14:06:56;22.40;;;15.60;;
4521;SDS011;2273;48.464;11.926;2023-04-08T14:09:22;20.80;;;13.53;;
4521;SDS011;2273;48.464;11.926;2023-04-08T14:11:48;19.93;;;13.83;;
4521;SDS011;2273;48.464;11.926;2023-04-08T14:14:13;21.10;;;14.53;;
4521;SDS011;2273;48.464;11.926;2023-04-08T14:16:39;26.07;;;14.67;;
4521;SDS011;2273;48.464;11.926;2023-04-08T14:19:05;21.70;;;14.50;;
4521;SDS011;2273;48.464;11.926;2023-04-08T14:21:31;21.37;;;14.60;;
4521;SDS011;2273;48.464;11.926;2023-04-08T14:23:57;20.40;;;14.37;;
4521;SDS011;2273;48.464;11.926;2023-04-08T14:26:22;22.37;;;14.20;;
4521;SDS011;2273;48.464;11.926;2023-04-08T14:28:48;22.00;;;14.73;;
4521;SDS011;2273;48.464;11.926;2023-04-08T14:31:13;21.50;;;13.67;;
4521;SDS011;2273;48.464;11.926;2023-04-08T14:33:39;20.73;;;13.57;;
4521;SDS011;2273;48.464;11.926;2023-04-08T14:36:06;21.80;;;13.40;;
4521;SDS011;2273;48.464;11.926;2023-04-08T14:38:32;18.80;;;12.87;;